createdAt,value
2019-03-24T00:00:13.415Z,21.93
2019-03-24T00:02:54.247Z,12.10
2019-03-24T00:05:35.041Z,16.37
2019-03-24T00:08:15.786Z,15.83
2019-03-24T00:10:56.555Z,12.43
2019-03-24T00:13:37.583Z,16.20
2019-03-24T00:16:18.486Z,20.43
2019-03-24T00:18:59.283Z,18.67
2019-03-24T00:21:39.981Z,14.17
2019-03-24T00:24:20.887Z,15.23
2019-03-24T00:27:01.697Z,21.33
2019-03-24T00:29:30.595Z,15.20
2019-03-24T00:32:18.391Z,24.20
2019-03-24T00:34:59.475Z,18.10
2019-03-24T00:37:40.218Z,14.67
2019-03-24T00:40:21.071Z,20.23
2019-03-24T00:43:02.147Z,15.77
2019-03-24T00:45:42.867Z,18.03
2019-03-24T00:48:23.766Z,12.43
2019-03-24T00:51:04.371Z,18.87
2019-03-24T00:53:45.404Z,22.27
2019-03-24T00:56:26.146Z,17.80
2019-03-24T00:59:07.147Z,13.07
2019-03-24T01:01:48.005Z,21.37
2019-03-24T01:04:28.881Z,17.30
2019-03-24T01:06:57.483Z,17.27
2019-03-24T01:09:45.289Z,19.87
2019-03-24T01:12:33.163Z,17.07
2019-03-24T01:15:13.543Z,19.40
2019-03-24T01:17:54.193Z,15.63
2019-03-24T01:20:34.944Z,18.77
2019-03-24T01:23:15.608Z,19.60
2019-03-24T01:25:56.428Z,19.00
2019-03-24T01:28:37.188Z,20.17
2019-03-24T01:31:18.068Z,19.37
2019-03-24T01:33:58.903Z,20.67
2019-03-24T01:36:39.688Z,19.50
2019-03-24T01:39:20.619Z,20.23
2019-03-24T01:42:01.343Z,21.37
2019-03-24T01:44:29.811Z,26.00
2019-03-24T01:47:17.612Z,26.17
2019-03-24T01:50:06.079Z,21.47
2019-03-24T01:52:47.120Z,19.00
2019-03-24T01:55:27.867Z,19.90
2019-03-24T01:58:08.604Z,20.40
2019-03-24T02:00:49.075Z,20.13
2019-03-24T02:03:29.726Z,15.03
2019-03-24T02:06:10.367Z,20.00
2019-03-24T02:08:51.234Z,14.87
2019-03-24T02:11:31.751Z,17.50
2019-03-24T02:14:12.708Z,24.33
2019-03-24T02:16:53.398Z,17.87
2019-03-24T02:19:33.794Z,27.20
2019-03-24T02:22:14.262Z,17.47
2019-03-24T02:24:55.680Z,19.10
2019-03-24T02:27:36.772Z,17.83
2019-03-24T02:30:17.648Z,19.63
2019-03-24T02:32:58.528Z,14.23
2019-03-24T02:35:39.199Z,19.13
2019-03-24T02:38:19.822Z,24.60
2019-03-24T02:41:00.504Z,17.83
2019-03-24T02:43:41.159Z,20.73
2019-03-24T02:46:24.685Z,19.53
2019-03-24T02:48:51.949Z,20.37
2019-03-24T02:51:39.749Z,17.30
2019-03-24T02:54:20.864Z,19.77
2019-03-24T02:57:01.686Z,21.03
2019-03-24T02:59:42.699Z,21.40
2019-03-24T03:02:23.689Z,24.90
2019-03-24T03:05:04.537Z,14.47
2019-03-24T03:07:45.646Z,22.07
2019-03-24T03:10:28.053Z,21.23
2019-03-24T03:13:09.213Z,22.47
2019-03-24T03:15:49.901Z,17.83
2019-03-24T03:18:31.329Z,19.50
2019-03-24T03:21:12.263Z,21.30
2019-03-24T03:23:53.186Z,18.83
2019-03-24T03:26:34.087Z,22.23
2019-03-24T03:29:14.501Z,22.87
2019-03-24T03:31:55.170Z,17.93
2019-03-24T03:34:35.968Z,17.57
2019-03-24T03:37:16.483Z,24.43
2019-03-24T03:39:58.417Z,23.57
2019-03-24T03:42:39.028Z,20.83
2019-03-24T03:45:19.871Z,15.00
2019-03-24T03:48:00.995Z,19.53
2019-03-24T03:50:29.693Z,17.07
2019-03-24T03:53:17.482Z,25.53
2019-03-24T03:56:05.363Z,19.20
2019-03-24T03:58:45.686Z,19.70
2019-03-24T04:01:26.419Z,14.80
2019-03-24T04:04:07.087Z,15.70
2019-03-24T04:06:47.952Z,29.97
2019-03-24T04:09:28.638Z,17.27
2019-03-24T04:12:09.741Z,19.90
2019-03-24T04:14:50.700Z,22.07
2019-03-24T04:17:31.409Z,17.00
2019-03-24T04:20:12.452Z,16.73
2019-03-24T04:22:53.329Z,14.83
2019-03-24T04:25:34.015Z,19.33
2019-03-24T04:28:14.849Z,21.00
2019-03-24T04:30:55.531Z,29.07
2019-03-24T04:33:36.294Z,16.63
2019-03-24T04:36:16.681Z,31.00
2019-03-24T04:38:57.605Z,24.27
2019-03-24T04:41:38.514Z,22.30
2019-03-24T04:44:19.243Z,18.33
2019-03-24T04:46:59.864Z,22.87
2019-03-24T04:49:40.676Z,21.93
2019-03-24T04:52:21.171Z,14.40
2019-03-24T04:55:01.600Z,19.73
2019-03-24T04:57:42.532Z,21.73
2019-03-24T05:00:23.152Z,20.70
2019-03-24T05:03:03.704Z,18.53
2019-03-24T05:05:44.524Z,24.13
2019-03-24T05:08:25.070Z,22.67
2019-03-24T05:11:05.734Z,25.13
2019-03-24T05:13:46.811Z,25.13
2019-03-24T05:16:27.728Z,25.33
2019-03-24T05:19:08.430Z,17.90
2019-03-24T05:21:48.898Z,24.87
2019-03-24T05:24:29.730Z,17.30
2019-03-24T05:27:10.588Z,19.10
2019-03-24T05:29:51.287Z,22.47
2019-03-24T05:32:32.196Z,23.93
2019-03-24T05:35:13.238Z,27.70
2019-03-24T05:37:54.274Z,25.53
2019-03-24T05:40:34.731Z,21.07
2019-03-24T05:43:15.695Z,22.10
2019-03-24T05:45:56.152Z,25.93
2019-03-24T05:48:36.972Z,19.07
2019-03-24T05:51:17.670Z,20.27
2019-03-24T05:53:58.359Z,24.23
2019-03-24T05:56:39.101Z,25.43
2019-03-24T05:59:19.731Z,23.93
2019-03-24T06:02:00.296Z,16.27
2019-03-24T06:04:41.838Z,18.27
2019-03-24T06:07:22.479Z,20.23
2019-03-24T06:10:03.553Z,17.90
2019-03-24T06:12:44.342Z,21.90
2019-03-24T06:15:25.075Z,17.00
2019-03-24T06:18:05.447Z,24.40
2019-03-24T06:20:45.803Z,22.53
2019-03-24T06:23:26.532Z,26.10
2019-03-24T06:26:07.198Z,18.17
2019-03-24T06:28:48.063Z,15.13
2019-03-24T06:31:28.662Z,15.70
2019-03-24T06:34:09.689Z,21.77
2019-03-24T06:36:50.128Z,17.83
2019-03-24T06:39:30.976Z,17.07
2019-03-24T06:42:11.451Z,20.13
2019-03-24T06:44:52.653Z,20.10
2019-03-24T06:47:33.179Z,22.07
2019-03-24T06:50:14.016Z,23.50
2019-03-24T06:52:54.349Z,17.73
2019-03-24T06:55:35.005Z,21.13
2019-03-24T06:58:15.972Z,23.33
2019-03-24T07:00:56.896Z,19.37
2019-03-24T07:03:37.796Z,24.20
2019-03-24T07:06:18.299Z,18.80
2019-03-24T07:08:59.003Z,15.73
2019-03-24T07:11:39.772Z,19.47
2019-03-24T07:14:20.684Z,21.50
2019-03-24T07:17:00.908Z,13.73
2019-03-24T07:19:41.980Z,22.50
2019-03-24T07:22:22.822Z,21.93
2019-03-24T07:24:51.299Z,18.23
2019-03-24T07:27:39.096Z,20.40
2019-03-24T07:30:19.811Z,17.43
2019-03-24T07:33:00.700Z,19.50
2019-03-24T07:35:41.371Z,24.33
2019-03-24T07:38:22.050Z,20.33
2019-03-24T07:41:02.685Z,20.87
2019-03-24T07:43:43.654Z,24.33
2019-03-24T07:46:25.236Z,20.47
2019-03-24T07:49:05.943Z,22.73
2019-03-24T07:51:46.645Z,22.37
2019-03-24T07:54:15.123Z,22.30
2019-03-24T07:57:02.912Z,18.17
2019-03-24T07:59:43.676Z,19.80
2019-03-24T08:02:24.445Z,21.40
2019-03-24T08:05:05.120Z,23.43
2019-03-24T08:07:45.929Z,20.40
2019-03-24T08:10:26.591Z,20.87
2019-03-24T08:13:08.519Z,17.83
2019-03-24T08:15:49.522Z,20.93
2019-03-24T08:18:30.388Z,17.13
2019-03-24T08:21:10.716Z,22.67
2019-03-24T08:23:51.271Z,19.47
2019-03-24T08:26:31.807Z,18.17
2019-03-24T08:29:12.568Z,19.20
2019-03-24T08:31:53.086Z,22.40
2019-03-24T08:34:34.115Z,18.90
2019-03-24T08:37:14.583Z,17.27
2019-03-24T08:39:55.090Z,21.00
2019-03-24T08:42:35.646Z,25.20
2019-03-24T08:45:16.426Z,18.13
2019-03-24T08:47:57.085Z,17.90
2019-03-24T08:50:37.702Z,12.87
2019-03-24T08:53:18.201Z,16.17
2019-03-24T08:55:59.303Z,15.90
2019-03-24T08:58:38.093Z,15.10
2019-03-24T09:01:25.904Z,12.57
2019-03-24T09:03:54.355Z,12.13
2019-03-24T09:06:42.258Z,15.97
2019-03-24T09:09:30.139Z,16.67
2019-03-24T09:12:10.499Z,13.27
2019-03-24T09:14:51.193Z,8.57
2019-03-24T09:17:31.852Z,11.57
2019-03-24T09:20:12.590Z,13.43
2019-03-24T09:22:53.408Z,14.67
2019-03-24T09:25:34.494Z,13.70
2019-03-24T09:28:15.242Z,17.27
2019-03-24T09:30:56.123Z,15.43
2019-03-24T09:33:37.057Z,15.93
2019-03-24T09:36:17.860Z,15.07
2019-03-24T09:38:58.729Z,12.63
2019-03-24T09:41:41.529Z,11.03
2019-03-24T09:44:20.333Z,15.37
2019-03-24T09:47:00.777Z,11.43
2019-03-24T09:49:41.643Z,17.30
2019-03-24T09:52:22.709Z,14.50
2019-03-24T09:55:03.848Z,18.00
2019-03-24T09:57:44.648Z,14.67
2019-03-24T10:00:25.466Z,16.30
2019-03-24T10:03:06.495Z,12.07
2019-03-24T10:05:47.277Z,17.80
2019-03-24T10:08:15.827Z,15.60
2019-03-24T10:13:58.755Z,15.30
2019-03-24T10:16:39.642Z,11.87
2019-03-24T10:19:20.387Z,17.00
2019-03-24T10:22:01.447Z,15.17
2019-03-24T10:24:42.235Z,15.50
2019-03-24T10:27:23.149Z,13.23
2019-03-24T10:30:03.865Z,13.23
2019-03-24T10:32:44.601Z,13.20
2019-03-24T10:35:25.635Z,13.83
2019-03-24T10:38:06.535Z,15.90
2019-03-24T10:40:47.793Z,14.67
2019-03-24T10:43:28.779Z,10.13
2019-03-24T10:46:09.510Z,10.40
2019-03-24T10:48:50.385Z,8.03
2019-03-24T10:51:31.188Z,10.87
2019-03-24T10:54:10.220Z,10.30
2019-03-24T10:56:50.458Z,10.63
2019-03-24T10:59:31.513Z,14.83
2019-03-24T11:02:12.395Z,13.83
2019-03-24T11:04:40.926Z,14.83
2019-03-24T11:07:28.813Z,10.60
2019-03-24T11:10:16.679Z,15.60
2019-03-24T11:12:57.231Z,14.97
2019-03-24T11:15:38.009Z,15.07
2019-03-24T11:18:18.718Z,10.07
2019-03-24T11:20:47.264Z,14.60
2019-03-24T11:23:35.074Z,13.87
2019-03-24T11:26:23.027Z,14.67
2019-03-24T11:29:03.387Z,13.80
2019-03-24T11:31:44.244Z,11.60
2019-03-24T11:34:25.237Z,10.80
2019-03-24T11:37:05.907Z,10.70
2019-03-24T11:39:48.043Z,10.50
2019-03-24T11:42:28.932Z,8.93
2019-03-24T11:45:09.438Z,9.43
2019-03-24T11:47:50.967Z,12.10
2019-03-24T11:50:32.169Z,9.63
2019-03-24T11:53:13.054Z,12.77
2019-03-24T11:55:53.585Z,12.53
2019-03-24T11:58:34.127Z,15.57
2019-03-24T12:01:15.331Z,16.27
2019-03-24T12:03:55.901Z,12.67
2019-03-24T12:06:36.462Z,14.03
2019-03-24T12:09:17.358Z,11.43
2019-03-24T12:11:58.030Z,11.90
2019-03-24T12:14:38.475Z,13.17
2019-03-24T12:17:20.741Z,15.23
2019-03-24T12:19:59.527Z,13.43
2019-03-24T12:22:47.330Z,12.40
2019-03-24T12:25:28.340Z,10.40
2019-03-24T12:28:09.404Z,9.00
2019-03-24T12:30:50.032Z,9.80
2019-03-24T12:33:32.021Z,9.00
2019-03-24T12:36:12.714Z,9.83
2019-03-24T12:38:53.464Z,9.17
2019-03-24T12:41:34.502Z,11.50
2019-03-24T12:44:14.767Z,8.20
2019-03-24T12:46:55.655Z,7.73
2019-03-24T12:49:36.550Z,7.20
2019-03-24T12:52:17.039Z,9.97
2019-03-24T12:54:58.357Z,7.53
2019-03-24T12:57:39.493Z,8.07
2019-03-24T13:00:20.845Z,10.20
2019-03-24T13:03:01.699Z,10.37
2019-03-24T13:05:43.204Z,7.67
2019-03-24T13:08:23.875Z,11.23
2019-03-24T13:13:46.523Z,11.60
2019-03-24T13:16:27.014Z,11.23
2019-03-24T13:19:08.044Z,10.07
2019-03-24T13:21:48.824Z,12.93
2019-03-24T13:24:30.484Z,10.37
2019-03-24T13:27:10.960Z,9.10
2019-03-24T13:29:52.131Z,10.00
2019-03-24T13:32:33.357Z,8.67
2019-03-24T13:35:13.995Z,9.87
2019-03-24T13:37:54.455Z,11.07
2019-03-24T13:40:35.174Z,8.97
2019-03-24T13:43:16.063Z,11.33
2019-03-24T13:45:57.394Z,9.23
2019-03-24T13:48:37.967Z,9.67
2019-03-24T13:51:18.830Z,9.67
2019-03-24T13:53:59.962Z,8.13
2019-03-24T13:56:40.466Z,10.70
2019-03-24T13:59:21.318Z,10.10
2019-03-24T14:02:01.795Z,10.97
2019-03-24T14:04:42.612Z,6.30
2019-03-24T14:07:23.487Z,8.17
2019-03-24T14:13:07.547Z,8.63
2019-03-24T14:15:48.341Z,8.03
2019-03-24T14:18:28.957Z,7.30
2019-03-24T14:21:09.670Z,9.20
2019-03-24T14:23:50.325Z,7.17
2019-03-24T14:26:31.428Z,11.23
2019-03-24T14:29:12.112Z,12.00
2019-03-24T14:31:52.867Z,8.97
2019-03-24T14:34:33.727Z,11.40
2019-03-24T14:37:14.579Z,6.93
2019-03-24T14:39:55.346Z,13.50
2019-03-24T14:42:35.707Z,8.97
2019-03-24T14:45:16.376Z,7.70
2019-03-24T14:47:57.013Z,8.77
2019-03-24T14:50:37.679Z,9.23
2019-03-24T14:53:18.253Z,9.10
2019-03-24T14:55:59.155Z,9.60
2019-03-24T14:58:39.864Z,9.33
2019-03-24T15:01:20.764Z,8.63
2019-03-24T15:04:01.227Z,7.73
2019-03-24T15:06:42.172Z,10.87
2019-03-24T15:09:23.419Z,8.03
2019-03-24T15:12:04.274Z,8.83
2019-03-24T15:14:45.171Z,6.73
2019-03-24T15:17:25.822Z,8.27
2019-03-24T15:20:06.599Z,9.07
2019-03-24T15:22:47.152Z,8.00
2019-03-24T15:25:28.024Z,6.57
2019-03-24T15:28:08.992Z,7.70
2019-03-24T15:30:49.491Z,7.47
2019-03-24T15:33:30.443Z,4.07
2019-03-24T15:36:10.948Z,8.83
2019-03-24T15:38:51.723Z,4.77
2019-03-24T15:41:32.625Z,9.80
2019-03-24T15:44:13.517Z,5.90
2019-03-24T15:46:54.224Z,7.60
2019-03-24T15:49:34.750Z,5.80
2019-03-24T15:52:15.647Z,9.10
2019-03-24T15:54:56.388Z,6.73
2019-03-24T15:57:37.330Z,7.07
2019-03-24T16:00:18.056Z,7.20
2019-03-24T16:02:59.662Z,10.57
2019-03-24T16:05:40.239Z,10.63
2019-03-24T16:08:20.897Z,7.90
2019-03-24T16:11:01.701Z,8.73
2019-03-24T16:13:42.283Z,10.07
2019-03-24T16:16:23.332Z,6.30
2019-03-24T16:19:04.189Z,9.63
2019-03-24T16:21:45.135Z,12.00
2019-03-24T16:24:26.032Z,8.33
2019-03-24T16:27:06.574Z,6.00
2019-03-24T16:29:47.431Z,7.27
2019-03-24T16:32:27.954Z,7.67
2019-03-24T16:35:08.209Z,11.03
2019-03-24T16:37:49.100Z,7.00
2019-03-24T16:40:31.286Z,6.93
2019-03-24T16:43:12.357Z,6.53
2019-03-24T16:45:53.120Z,6.43
2019-03-24T16:48:36.983Z,8.23
2019-03-24T16:51:16.096Z,5.87
2019-03-24T16:53:44.564Z,7.30
2019-03-24T16:56:32.507Z,6.10
2019-03-24T16:59:13.422Z,9.20
2019-03-24T17:01:54.110Z,8.10
2019-03-24T17:04:35.045Z,11.43
2019-03-24T17:07:16.032Z,11.97
2019-03-24T17:09:56.413Z,8.87
2019-03-24T17:12:37.107Z,6.83
2019-03-24T17:15:17.674Z,9.43
2019-03-24T17:17:58.106Z,12.47
2019-03-24T17:20:39.048Z,6.87
2019-03-24T17:23:20.078Z,11.47
2019-03-24T17:26:01.073Z,10.37
2019-03-24T17:28:42.292Z,7.93
2019-03-24T17:31:22.953Z,8.03
2019-03-24T17:34:03.609Z,8.63
2019-03-24T17:36:44.375Z,8.23
2019-03-24T17:39:24.903Z,6.90
2019-03-24T17:42:05.904Z,9.00
2019-03-24T17:44:46.712Z,8.70
2019-03-24T17:47:27.560Z,9.13
2019-03-24T17:50:08.370Z,9.77
2019-03-24T17:52:48.717Z,8.40
2019-03-24T17:55:31.059Z,10.77
2019-03-24T17:58:10.132Z,14.27
2019-03-24T18:00:58.009Z,15.07
2019-03-24T18:03:38.306Z,13.93
2019-03-24T18:06:18.885Z,9.60
2019-03-24T18:08:59.479Z,13.73
2019-03-24T18:11:40.191Z,14.33
2019-03-24T18:14:20.585Z,14.57
2019-03-24T18:17:01.479Z,15.43
2019-03-24T18:19:42.781Z,12.20
2019-03-24T18:22:23.771Z,14.20
2019-03-24T18:25:02.556Z,11.67
2019-03-24T18:27:50.685Z,13.13
2019-03-24T18:30:31.259Z,12.17
2019-03-24T18:33:12.271Z,11.90
2019-03-24T18:35:53.313Z,10.07
2019-03-24T18:38:33.971Z,7.80
2019-03-24T18:41:14.610Z,12.17
2019-03-24T18:43:55.424Z,14.13
2019-03-24T18:46:36.344Z,12.40
2019-03-24T18:49:16.950Z,10.23
2019-03-24T18:51:57.901Z,6.17
2019-03-24T18:54:38.720Z,11.27
2019-03-24T18:57:19.318Z,11.90
2019-03-24T19:00:00.339Z,12.43
2019-03-24T19:02:41.309Z,12.27
2019-03-24T19:05:21.906Z,10.40
2019-03-24T19:08:02.628Z,13.83
2019-03-24T19:10:43.369Z,10.47
2019-03-24T19:13:24.481Z,14.47
2019-03-24T19:16:05.377Z,11.00
2019-03-24T19:18:46.304Z,13.10
2019-03-24T19:21:26.830Z,13.30
2019-03-24T19:24:07.361Z,11.20
2019-03-24T19:26:47.926Z,12.07
2019-03-24T19:29:28.825Z,16.57
2019-03-24T19:32:09.901Z,16.10
2019-03-24T19:34:50.560Z,15.40
2019-03-24T19:37:33.248Z,12.27
2019-03-24T19:40:13.949Z,13.13
2019-03-24T19:42:54.450Z,12.97
2019-03-24T19:45:35.102Z,11.07
2019-03-24T19:48:15.896Z,11.00
2019-03-24T19:50:56.775Z,8.37
2019-03-24T19:53:37.536Z,18.90
2019-03-24T19:56:19.839Z,14.23
2019-03-24T19:59:00.804Z,19.23
2019-03-24T20:01:41.131Z,10.90
2019-03-24T20:04:22.023Z,14.80
2019-03-24T20:07:02.827Z,12.53
2019-03-24T20:09:43.603Z,8.86
2019-03-24T20:12:24.224Z,10.87
2019-03-24T20:15:04.777Z,11.90
2019-03-24T20:17:45.574Z,11.97
2019-03-24T20:20:26.554Z,10.00
2019-03-24T20:23:07.538Z,10.80
2019-03-24T20:25:48.581Z,8.47
2019-03-24T20:28:29.568Z,9.43
2019-03-24T20:31:10.489Z,11.47
2019-03-24T20:33:51.595Z,7.37
2019-03-24T20:36:31.993Z,11.23
2019-03-24T20:39:12.583Z,10.93
2019-03-24T20:41:52.938Z,12.63
2019-03-24T20:44:33.708Z,11.27
2019-03-24T20:47:14.477Z,10.97
2019-03-24T20:49:55.259Z,11.73
2019-03-24T20:52:36.179Z,8.70
2019-03-24T20:55:17.083Z,8.83
2019-03-24T20:57:58.137Z,11.03
2019-03-24T21:00:39.018Z,8.37
2019-03-24T21:03:19.963Z,12.97
2019-03-24T21:06:00.351Z,11.30
2019-03-24T21:08:40.935Z,10.13
2019-03-24T21:11:21.877Z,10.67
2019-03-24T21:14:02.666Z,15.00
2019-03-24T21:16:43.565Z,7.90
2019-03-24T21:19:24.224Z,10.87
2019-03-24T21:22:05.054Z,12.60
2019-03-24T21:24:45.506Z,10.97
2019-03-24T21:27:26.441Z,10.50
2019-03-24T21:30:08.041Z,13.77
2019-03-24T21:32:51.426Z,9.43
2019-03-24T21:35:31.857Z,10.13
2019-03-24T21:38:12.809Z,12.20
2019-03-24T21:40:53.511Z,10.27
2019-03-24T21:43:34.325Z,17.63
2019-03-24T21:46:15.341Z,9.13
2019-03-24T21:48:57.729Z,6.90
2019-03-24T21:51:38.781Z,9.87
2019-03-24T21:54:19.651Z,11.97
2019-03-24T21:57:00.841Z,11.97
2019-03-24T21:59:41.248Z,7.07
2019-03-24T22:02:21.904Z,8.93
2019-03-24T22:05:02.319Z,11.67
2019-03-24T22:07:43.146Z,8.23
2019-03-24T22:10:23.909Z,9.73
2019-03-24T22:13:04.957Z,8.83
2019-03-24T22:15:45.945Z,10.97
2019-03-24T22:18:26.747Z,11.43
2019-03-24T22:21:07.624Z,5.87
2019-03-24T22:23:36.160Z,9.27
2019-03-24T22:26:23.961Z,9.60
2019-03-24T22:29:05.035Z,13.23
2019-03-24T22:31:46.181Z,9.47
2019-03-24T22:34:27.104Z,11.33
2019-03-24T22:37:15.862Z,11.57
2019-03-24T22:39:50.960Z,11.47
2019-03-24T22:42:31.772Z,13.20
2019-03-24T22:45:13.029Z,8.03
2019-03-24T22:47:53.934Z,9.37
2019-03-24T22:50:34.307Z,8.20
2019-03-24T22:53:14.911Z,9.40
2019-03-24T22:55:55.707Z,14.53
2019-03-24T22:58:36.553Z,11.83
2019-03-24T23:01:17.574Z,9.37
2019-03-24T23:03:58.486Z,11.70
2019-03-24T23:06:39.263Z,12.30
2019-03-24T23:09:19.853Z,12.57
2019-03-24T23:12:00.306Z,12.53
2019-03-24T23:14:41.074Z,14.30
2019-03-24T23:17:21.826Z,9.87
2019-03-24T23:20:02.305Z,7.23
2019-03-24T23:22:43.058Z,11.10
2019-03-24T23:25:24.158Z,14.80
2019-03-24T23:28:04.735Z,11.43
2019-03-24T23:30:45.367Z,11.07
2019-03-24T23:33:25.724Z,13.67
2019-03-24T23:36:06.390Z,7.70
2019-03-24T23:38:47.479Z,12.37
2019-03-24T23:41:27.811Z,10.40
2019-03-24T23:44:08.650Z,12.17
2019-03-24T23:46:49.474Z,12.43
2019-03-24T23:49:30.055Z,10.67
2019-03-24T23:52:10.783Z,12.47
2019-03-24T23:54:51.552Z,10.53
2019-03-24T23:57:32.612Z,14.70
